createdAt,value
2024-04-24T00:00:03.103Z,253.04
2024-04-24T00:01:03.149Z,192.07
2024-04-24T00:02:03.098Z,175.49
2024-04-24T00:03:04.406Z,160.76
2024-04-24T00:04:03.134Z,150.58
2024-04-24T00:05:03.150Z,140.86
2024-04-24T00:06:03.097Z,131.47
2024-04-24T00:07:03.098Z,124.77
2024-04-24T00:08:03.164Z,118.35
2024-04-24T00:09:03.138Z,114.18
2024-04-24T00:10:03.144Z,108.84
2024-04-24T00:11:03.219Z,103.09
2024-04-24T00:12:03.216Z,99.33
2024-04-24T00:13:03.136Z,95.55
2024-04-24T00:14:03.188Z,93.86
2024-04-24T00:15:03.155Z,90.85
2024-04-24T00:16:03.145Z,87.64
2024-04-24T00:17:03.175Z,86.99
2024-04-24T00:18:03.172Z,84.93
2024-04-24T00:19:03.147Z,80.98
2024-04-24T00:20:03.166Z,79.75
2024-04-24T00:21:03.141Z,78.52
2024-04-24T00:22:03.154Z,76.63
2024-04-24T00:23:03.191Z,77.45
2024-04-24T00:24:03.152Z,74.75
2024-04-24T00:25:03.149Z,74.66
2024-04-24T00:26:03.178Z,72.85
2024-04-24T00:27:03.204Z,73.04
2024-04-24T00:28:03.180Z,71.58
2024-04-24T00:29:03.231Z,71.02
2024-04-24T00:30:03.180Z,68.18
2024-04-24T00:31:03.189Z,69.55
2024-04-24T00:32:03.210Z,67.63
2024-04-24T00:33:03.318Z,68.14
2024-04-24T00:34:03.310Z,67.18
2024-04-24T00:35:03.518Z,66.49
2024-04-24T00:36:03.491Z,66.39
2024-04-24T00:37:03.570Z,64.79
2024-04-24T00:38:03.699Z,64.63
2024-04-24T00:39:03.742Z,64.63
2024-04-24T00:40:03.824Z,64.35
2024-04-24T00:41:04.012Z,65.55
2024-04-24T00:42:04.017Z,63.12
2024-04-24T00:43:04.111Z,62.24
2024-04-24T00:44:04.311Z,63.40
2024-04-24T00:45:04.260Z,61.35
2024-04-24T00:46:04.326Z,61.78
2024-04-24T00:47:04.468Z,61.69
2024-04-24T00:48:04.562Z,61.78
2024-04-24T00:49:04.552Z,61.23
2024-04-24T00:50:04.656Z,60.73
2024-04-24T00:51:04.733Z,60.27
2024-04-24T00:52:04.799Z,59.16
2024-04-24T00:53:04.914Z,59.28
2024-04-24T00:54:04.975Z,60.25
2024-04-24T00:55:05.060Z,61.49
2024-04-24T00:56:05.143Z,58.35
2024-04-24T00:57:05.201Z,59.61
2024-04-24T00:58:05.264Z,58.98
2024-04-24T00:59:05.418Z,59.27
2024-04-24T01:00:05.428Z,58.28
2024-04-24T01:01:05.596Z,57.69
2024-04-24T01:02:05.655Z,58.68
2024-04-24T01:03:05.721Z,57.42
2024-04-24T01:04:05.805Z,57.01
2024-04-24T01:05:05.913Z,56.81
2024-04-24T01:06:05.920Z,58.34
2024-04-24T01:07:06.012Z,58.33
2024-04-24T01:08:06.115Z,57.81
2024-04-24T01:09:06.188Z,56.36
2024-04-24T01:10:06.257Z,56.81
2024-04-24T01:11:06.460Z,56.66
2024-04-24T01:12:06.606Z,56.28
2024-04-24T01:13:06.517Z,57.21
2024-04-24T01:14:06.596Z,56.31
2024-04-24T01:15:06.674Z,56.23
2024-04-24T01:16:06.734Z,56.43
2024-04-24T01:17:06.972Z,56.21
2024-04-24T01:18:07.025Z,56.70
2024-04-24T01:19:06.966Z,57.40
2024-04-24T01:20:07.090Z,56.35
2024-04-24T01:21:07.114Z,55.61
2024-04-24T01:22:07.196Z,56.15
2024-04-24T01:23:07.298Z,54.49
2024-04-24T01:24:07.347Z,55.71
2024-04-24T01:25:07.441Z,56.26
2024-04-24T01:26:07.507Z,56.99
2024-04-24T01:27:07.581Z,56.52
2024-04-24T01:28:07.682Z,55.64
2024-04-24T01:29:07.807Z,55.59
2024-04-24T01:30:07.834Z,54.40
2024-04-24T01:31:07.942Z,55.61
2024-04-24T01:32:08.068Z,56.25
2024-04-24T01:33:08.305Z,54.56
2024-04-24T01:34:08.167Z,56.04
2024-04-24T01:35:08.277Z,54.82
2024-04-24T01:36:08.321Z,54.87
2024-04-24T01:37:08.390Z,54.80
2024-04-24T01:38:08.529Z,53.78
2024-04-24T01:39:08.606Z,54.82
2024-04-24T01:40:08.640Z,56.37
2024-04-24T01:41:08.784Z,53.76
2024-04-24T01:42:08.807Z,54.51
2024-04-24T01:43:08.897Z,53.98
2024-04-24T01:44:09.034Z,54.33
2024-04-24T01:45:09.056Z,54.43
2024-04-24T01:46:09.130Z,52.88
2024-04-24T01:47:09.341Z,54.38
2024-04-24T01:48:09.353Z,54.01
2024-04-24T01:49:09.366Z,53.92
2024-04-24T01:50:09.460Z,52.78
2024-04-24T01:51:09.504Z,54.19
2024-04-24T01:52:09.582Z,53.61
2024-04-24T01:53:09.730Z,53.80
2024-04-24T01:54:09.758Z,54.70
2024-04-24T01:55:09.815Z,53.15
2024-04-24T01:56:10.003Z,53.20
2024-04-24T01:57:09.977Z,53.00
2024-04-24T01:58:10.069Z,53.17
2024-04-24T01:59:10.198Z,53.46
2024-04-24T02:00:10.233Z,53.46
2024-04-24T02:01:10.432Z,53.60
2024-04-24T02:02:10.462Z,54.99
2024-04-24T02:03:10.605Z,52.25
2024-04-24T02:04:10.637Z,53.35
2024-04-24T02:05:10.643Z,53.83
2024-04-24T02:06:10.699Z,53.44
2024-04-24T02:07:10.791Z,52.44
2024-04-24T02:08:10.897Z,54.16
2024-04-24T02:09:10.956Z,55.73
2024-04-24T02:10:11.032Z,54.15
2024-04-24T02:11:11.207Z,53.87
2024-04-24T02:12:16.302Z,53.22
2024-04-24T02:13:11.204Z,53.29
2024-04-24T02:14:11.206Z,53.69
2024-04-24T02:15:11.191Z,53.54
2024-04-24T02:16:11.194Z,53.70
2024-04-24T02:17:11.289Z,53.15
2024-04-24T02:18:11.267Z,55.43
2024-04-24T02:19:11.234Z,55.37
2024-04-24T02:20:11.262Z,51.74
2024-04-24T02:21:11.228Z,53.58
2024-04-24T02:22:11.215Z,54.11
2024-04-24T02:23:11.244Z,54.02
2024-04-24T02:24:11.225Z,52.47
2024-04-24T02:25:11.220Z,53.58
2024-04-24T02:26:11.253Z,52.48
2024-04-24T02:27:11.247Z,51.72
2024-04-24T02:28:11.263Z,52.22
2024-04-24T02:29:11.246Z,53.21
2024-04-24T02:30:11.239Z,52.56
2024-04-24T02:31:11.244Z,52.37
2024-04-24T02:32:11.315Z,52.33
2024-04-24T02:33:11.403Z,51.69
2024-04-24T02:34:11.245Z,53.27
2024-04-24T02:35:11.298Z,53.17
2024-04-24T02:36:11.272Z,52.36
2024-04-24T02:37:11.271Z,51.28
2024-04-24T02:38:11.310Z,52.10
2024-04-24T02:39:11.265Z,52.68
2024-04-24T02:40:11.257Z,53.18
2024-04-24T02:41:11.314Z,53.22
2024-04-24T02:42:11.276Z,51.68
2024-04-24T02:43:11.346Z,54.05
2024-04-24T02:44:11.451Z,53.41
2024-04-24T02:45:11.524Z,53.57
2024-04-24T02:46:11.597Z,52.41
2024-04-24T02:47:11.715Z,51.70
2024-04-24T02:48:11.824Z,51.77
2024-04-24T02:49:11.818Z,51.71
2024-04-24T02:50:11.946Z,51.75
2024-04-24T02:51:12.002Z,51.43
2024-04-24T02:52:12.052Z,52.23
2024-04-24T02:53:12.224Z,50.79
2024-04-24T02:54:12.228Z,51.98
2024-04-24T02:55:12.278Z,51.46
2024-04-24T02:56:12.386Z,51.32
2024-04-24T02:57:12.448Z,52.58
2024-04-24T02:58:12.529Z,51.89
2024-04-24T02:59:12.655Z,53.37
2024-04-24T03:00:12.711Z,53.39
2024-04-24T03:01:12.772Z,53.57
2024-04-24T03:02:12.911Z,53.33
2024-04-24T03:03:13.067Z,52.63
2024-04-24T03:04:13.019Z,53.03
2024-04-24T03:05:13.155Z,52.73
2024-04-24T03:06:13.175Z,55.05
2024-04-24T03:07:13.235Z,52.44
2024-04-24T03:08:13.368Z,54.29
2024-04-24T03:09:13.403Z,52.48
2024-04-24T03:10:13.455Z,53.46
2024-04-24T03:11:13.584Z,54.24
2024-04-24T03:12:13.590Z,52.32
2024-04-24T03:13:13.669Z,51.93
2024-04-24T03:14:13.781Z,53.65
2024-04-24T03:15:13.822Z,52.47
2024-04-24T03:16:13.895Z,50.78
2024-04-24T03:17:14.054Z,52.71
2024-04-24T03:18:14.156Z,52.64
2024-04-24T03:19:14.143Z,53.22
2024-04-24T03:20:14.258Z,53.41
2024-04-24T03:21:14.299Z,52.49
2024-04-24T03:22:14.360Z,53.57
2024-04-24T03:23:14.558Z,52.23
2024-04-24T03:24:14.505Z,52.31
2024-04-24T03:25:14.585Z,51.85
2024-04-24T03:26:14.685Z,51.70
2024-04-24T03:27:14.717Z,53.06
2024-04-24T03:28:14.853Z,53.62
2024-04-24T03:29:16.389Z,52.69
2024-04-24T03:30:14.865Z,53.70
2024-04-24T03:31:14.874Z,51.91
2024-04-24T03:32:14.961Z,52.88
2024-04-24T03:33:14.933Z,54.28
2024-04-24T03:34:14.877Z,54.30
2024-04-24T03:35:14.899Z,55.09
2024-04-24T03:36:14.874Z,52.35
2024-04-24T03:37:14.885Z,52.92
2024-04-24T03:38:14.911Z,52.73
2024-04-24T03:39:14.931Z,50.75
2024-04-24T03:40:14.887Z,52.92
2024-04-24T03:41:15.016Z,51.71
2024-04-24T03:42:14.900Z,53.41
2024-04-24T03:43:14.892Z,51.03
2024-04-24T03:44:14.914Z,52.09
2024-04-24T03:45:14.893Z,53.56
2024-04-24T03:46:14.892Z,51.08
2024-04-24T03:47:14.987Z,51.91
2024-04-24T03:48:15.048Z,52.60
2024-04-24T03:49:14.939Z,51.83
2024-04-24T03:50:14.982Z,52.50
2024-04-24T03:51:14.976Z,52.31
2024-04-24T03:52:14.941Z,52.58
2024-04-24T03:53:14.967Z,51.08
2024-04-24T03:54:14.936Z,52.48
2024-04-24T03:55:14.959Z,51.73
2024-04-24T03:56:15.048Z,50.00
2024-04-24T03:57:14.955Z,52.39
2024-04-24T03:58:14.964Z,51.67
2024-04-24T03:59:15.003Z,53.04
2024-04-24T04:00:14.954Z,52.17
2024-04-24T04:01:15.067Z,53.45
2024-04-24T04:02:14.994Z,51.20
2024-04-24T04:03:15.004Z,53.24
2024-04-24T04:04:15.090Z,51.78
2024-04-24T04:05:15.145Z,52.53
2024-04-24T04:06:15.221Z,54.57
2024-04-24T04:07:15.271Z,53.24
2024-04-24T04:08:15.347Z,52.46
2024-04-24T04:09:15.397Z,52.36
2024-04-24T04:10:15.456Z,52.16
2024-04-24T04:11:15.601Z,52.40
2024-04-24T04:12:15.648Z,53.17
2024-04-24T04:13:15.675Z,50.69
2024-04-24T04:14:15.805Z,53.18
2024-04-24T04:15:15.841Z,53.94
2024-04-24T04:16:15.896Z,53.14
2024-04-24T04:17:16.038Z,51.71
2024-04-24T04:18:16.156Z,51.69
2024-04-24T04:19:16.123Z,52.84
2024-04-24T04:20:16.315Z,52.22
2024-04-24T04:21:16.294Z,52.33
2024-04-24T04:22:16.366Z,52.55
2024-04-24T04:23:16.467Z,50.55
2024-04-24T04:24:16.545Z,52.73
2024-04-24T04:25:16.592Z,51.26
2024-04-24T04:26:16.715Z,51.57
2024-04-24T04:27:16.761Z,53.59
2024-04-24T04:28:16.838Z,50.77
2024-04-24T04:29:16.962Z,52.29
2024-04-24T04:30:16.984Z,54.51
2024-04-24T04:31:17.048Z,52.39
2024-04-24T04:32:17.175Z,52.14
2024-04-24T04:33:17.322Z,51.24
2024-04-24T04:34:17.283Z,53.28
2024-04-24T04:35:17.380Z,54.38
2024-04-24T04:36:17.443Z,51.60
2024-04-24T04:37:17.517Z,52.96
2024-04-24T04:38:17.611Z,52.89
2024-04-24T04:39:17.681Z,53.60
2024-04-24T04:40:17.749Z,53.88
2024-04-24T04:41:17.846Z,50.63
2024-04-24T04:42:17.892Z,50.03
2024-04-24T04:43:19.061Z,50.84
2024-04-24T04:44:17.988Z,52.54
2024-04-24T04:45:17.980Z,53.17
2024-04-24T04:46:17.975Z,53.09
2024-04-24T04:47:18.203Z,53.11
2024-04-24T04:48:25.558Z,50.00
2024-04-24T04:49:26.469Z,50.00
2024-04-24T04:50:26.555Z,50.00
2024-04-24T04:51:26.478Z,50.00
2024-04-24T04:52:26.499Z,50.00
2024-04-24T04:53:26.511Z,50.90
2024-04-24T04:54:26.477Z,50.00
2024-04-24T04:55:26.480Z,50.00
2024-04-24T04:56:26.533Z,52.04
2024-04-24T04:57:26.491Z,50.00
2024-04-24T04:58:26.513Z,50.03
2024-04-24T04:59:26.647Z,51.92
2024-04-24T05:00:26.496Z,50.33
2024-04-24T05:01:26.513Z,50.00
2024-04-24T05:02:26.860Z,55.63
2024-04-24T05:03:26.570Z,50.34
2024-04-24T05:04:26.726Z,50.95
2024-04-24T05:05:26.603Z,51.88
2024-04-24T05:06:26.556Z,50.29
2024-04-24T05:07:26.537Z,52.79
2024-04-24T05:08:26.611Z,51.42
2024-04-24T05:09:26.655Z,52.32
2024-04-24T05:10:26.745Z,53.20
2024-04-24T05:11:26.931Z,52.39
2024-04-24T05:12:26.947Z,55.02
2024-04-24T05:13:27.070Z,51.88
2024-04-24T05:14:27.240Z,52.58
2024-04-24T05:15:27.241Z,52.31
2024-04-24T05:16:27.364Z,50.98
2024-04-24T05:17:27.628Z,53.42
2024-04-24T05:18:27.648Z,51.66
2024-04-24T05:19:27.695Z,53.34
2024-04-24T05:20:27.851Z,51.01
2024-04-24T05:21:27.865Z,52.97
2024-04-24T05:22:27.965Z,51.39
2024-04-24T05:23:28.073Z,50.38
2024-04-24T05:24:28.139Z,52.04
2024-04-24T05:25:28.254Z,52.95
2024-04-24T05:26:28.374Z,53.60
2024-04-24T05:27:28.614Z,53.42
2024-04-24T05:28:28.541Z,51.33
2024-04-24T05:29:28.677Z,54.83
2024-04-24T05:30:28.745Z,52.65
2024-04-24T05:31:28.828Z,52.73
2024-04-24T05:32:29.018Z,50.94
2024-04-24T05:33:29.128Z,53.38
2024-04-24T05:34:29.160Z,50.98
2024-04-24T05:35:29.287Z,55.52
2024-04-24T05:36:29.363Z,51.71
2024-04-24T05:37:29.457Z,53.62
2024-04-24T05:38:29.596Z,53.94
2024-04-24T05:39:29.665Z,52.56
2024-04-24T05:40:29.778Z,53.68
2024-04-24T05:41:29.978Z,56.68
2024-04-24T05:42:29.927Z,60.16
2024-04-24T05:43:30.002Z,61.57
2024-04-24T05:44:30.120Z,60.02
2024-04-24T05:45:30.303Z,57.26
2024-04-24T05:46:30.226Z,52.95
2024-04-24T05:47:30.470Z,50.53
2024-04-24T05:48:30.500Z,50.00
2024-04-24T05:49:30.510Z,49.42
2024-04-24T05:50:30.729Z,50.00
2024-04-24T05:51:30.734Z,50.00
2024-04-24T05:52:30.839Z,50.00
2024-04-24T05:53:31.143Z,50.00
2024-04-24T05:54:31.093Z,51.02
2024-04-24T05:55:31.182Z,52.18
2024-04-24T05:56:31.318Z,49.59
2024-04-24T05:57:31.343Z,52.27
2024-04-24T05:58:31.429Z,51.95
2024-04-24T05:59:31.538Z,52.61
2024-04-24T06:00:31.557Z,50.00
2024-04-24T06:01:36.756Z,51.08
2024-04-24T06:02:31.763Z,51.21
2024-04-24T06:03:31.650Z,51.64
2024-04-24T06:04:31.658Z,52.19
2024-04-24T06:05:31.761Z,53.37
2024-04-24T06:06:31.656Z,55.41
2024-04-24T06:07:31.643Z,60.81
2024-04-24T06:08:31.650Z,61.54
2024-04-24T06:09:31.650Z,67.15
2024-04-24T06:10:31.658Z,66.32
2024-04-24T06:11:31.740Z,71.58
2024-04-24T06:12:31.676Z,73.32
2024-04-24T06:13:31.669Z,75.43
2024-04-24T06:14:31.757Z,78.16
2024-04-24T06:15:35.268Z,85.23
2024-04-24T06:16:31.665Z,85.51
2024-04-24T06:17:32.105Z,87.58
2024-04-24T06:18:32.146Z,90.95
2024-04-24T06:19:32.016Z,98.75
2024-04-24T06:20:32.117Z,111.29
2024-04-24T06:21:32.490Z,116.61
2024-04-24T06:22:31.875Z,118.58
2024-04-24T06:23:32.001Z,124.74
2024-04-24T06:24:31.710Z,130.91
2024-04-24T06:25:31.738Z,131.88
2024-04-24T06:26:31.880Z,138.85
2024-04-24T06:27:31.932Z,143.67
2024-04-24T06:28:32.048Z,146.54
2024-04-24T06:29:32.199Z,149.94
2024-04-24T06:30:32.204Z,154.89
2024-04-24T06:31:32.294Z,158.85
2024-04-24T06:32:32.646Z,163.16
2024-04-24T06:33:32.530Z,166.37
2024-04-24T06:34:32.679Z,170.40
2024-04-24T06:35:34.604Z,173.76
2024-04-24T06:36:32.652Z,177.02
2024-04-24T06:37:32.654Z,184.23
2024-04-24T06:38:32.708Z,187.23
2024-04-24T06:39:32.678Z,188.83
2024-04-24T06:40:32.661Z,194.66
2024-04-24T06:41:32.766Z,196.91
2024-04-24T06:42:32.686Z,199.46
2024-04-24T06:43:33.122Z,199.52
2024-04-24T06:44:33.189Z,199.38
2024-04-24T06:45:32.680Z,198.96
2024-04-24T06:46:33.583Z,198.91
2024-04-24T06:47:32.800Z,200.17
2024-04-24T06:48:33.183Z,199.72
2024-04-24T06:49:32.716Z,198.38
2024-04-24T06:50:32.817Z,195.35
2024-04-24T06:51:32.792Z,186.96
2024-04-24T06:52:32.748Z,179.88
2024-04-24T06:53:33.229Z,171.83
2024-04-24T06:54:32.727Z,163.17
2024-04-24T06:55:32.747Z,155.62
2024-04-24T06:56:32.777Z,145.83
2024-04-24T06:57:32.749Z,138.23
2024-04-24T06:58:32.771Z,133.96
2024-04-24T06:59:32.821Z,130.09
2024-04-24T07:00:33.085Z,124.81
2024-04-24T07:01:33.270Z,120.63
2024-04-24T07:02:32.849Z,120.44
2024-04-24T07:03:32.893Z,117.41
2024-04-24T07:04:32.871Z,114.13
2024-04-24T07:05:33.291Z,112.76
2024-04-24T07:06:32.936Z,106.56
2024-04-24T07:07:33.024Z,105.15
2024-04-24T07:08:33.732Z,101.41
2024-04-24T07:09:33.156Z,97.96
2024-04-24T07:10:33.214Z,96.53
2024-04-24T07:11:33.286Z,94.54
2024-04-24T07:12:33.225Z,92.46
2024-04-24T07:13:33.213Z,89.52
2024-04-24T07:14:33.314Z,88.88
2024-04-24T07:15:33.258Z,86.39
2024-04-24T07:16:33.310Z,86.14
2024-04-24T07:17:33.492Z,85.65
2024-04-24T07:18:33.516Z,89.22
2024-04-24T07:19:33.544Z,92.57
2024-04-24T07:20:33.708Z,92.34
2024-04-24T07:21:33.669Z,94.38
2024-04-24T07:22:33.768Z,93.92
2024-04-24T07:23:33.870Z,94.09
2024-04-24T07:24:33.909Z,91.73
2024-04-24T07:25:34.018Z,90.38
2024-04-24T07:26:34.090Z,88.33
2024-04-24T07:27:34.168Z,89.87
2024-04-24T07:28:34.200Z,87.04
2024-04-24T07:29:34.351Z,88.27
2024-04-24T07:30:34.355Z,87.65
2024-04-24T07:31:34.490Z,86.14
2024-04-24T07:32:34.629Z,85.86
2024-04-24T07:33:34.621Z,85.70
2024-04-24T07:34:34.696Z,86.79
2024-04-24T07:35:34.796Z,86.84
2024-04-24T07:36:34.851Z,82.78
2024-04-24T07:37:34.906Z,83.13
2024-04-24T07:38:35.235Z,82.18
2024-04-24T07:39:35.088Z,82.50
2024-04-24T07:40:35.697Z,83.84
2024-04-24T07:41:35.223Z,84.57
2024-04-24T07:42:35.231Z,87.80
2024-04-24T07:43:35.230Z,89.28
2024-04-24T07:44:35.297Z,91.99
2024-04-24T07:45:35.431Z,95.26
2024-04-24T07:46:35.415Z,96.00
2024-04-24T07:47:35.490Z,97.06
2024-04-24T07:48:35.537Z,101.89
2024-04-24T07:49:35.521Z,104.85
2024-04-24T07:50:35.698Z,106.05
2024-04-24T07:51:35.704Z,107.39
2024-04-24T07:52:35.794Z,110.48
2024-04-24T07:53:36.494Z,113.72
2024-04-24T07:54:35.970Z,118.50
2024-04-24T07:55:35.994Z,119.91
2024-04-24T07:56:36.231Z,122.87
2024-04-24T07:57:36.117Z,123.88
2024-04-24T07:58:36.242Z,126.98
2024-04-24T07:59:36.292Z,132.30
2024-04-24T08:00:36.326Z,132.56
2024-04-24T08:01:36.340Z,132.64
2024-04-24T08:02:36.673Z,135.07
2024-04-24T08:03:36.544Z,137.20
2024-04-24T08:04:36.608Z,140.11
2024-04-24T08:05:36.774Z,138.75
2024-04-24T08:06:36.825Z,139.53
2024-04-24T08:07:36.879Z,139.80
2024-04-24T08:08:37.013Z,142.28
2024-04-24T08:09:37.123Z,142.73
2024-04-24T08:10:37.249Z,143.26
2024-04-24T08:11:37.356Z,146.36
2024-04-24T08:12:37.383Z,145.11
2024-04-24T08:13:37.535Z,146.23
2024-04-24T08:14:37.620Z,145.83
2024-04-24T08:15:37.720Z,146.02
2024-04-24T08:16:37.856Z,145.90
2024-04-24T08:17:38.120Z,147.18
2024-04-24T08:18:38.012Z,147.24
2024-04-24T08:19:38.111Z,147.30
2024-04-24T08:20:38.243Z,148.43
2024-04-24T08:21:38.346Z,147.84
2024-04-24T08:22:38.511Z,148.96
2024-04-24T08:23:38.613Z,147.91
2024-04-24T08:24:38.641Z,150.92
2024-04-24T08:25:38.721Z,150.56
2024-04-24T08:26:38.849Z,151.39
2024-04-24T08:27:38.933Z,149.52
2024-04-24T08:28:41.297Z,150.59
2024-04-24T08:29:39.085Z,152.24
2024-04-24T08:30:39.008Z,154.11
2024-04-24T08:31:39.012Z,151.30
2024-04-24T08:32:39.146Z,153.10
2024-04-24T08:33:39.262Z,152.96
2024-04-24T08:34:39.020Z,153.07
2024-04-24T08:35:39.027Z,152.27
2024-04-24T08:36:39.923Z,154.06
2024-04-24T08:37:39.101Z,154.10
2024-04-24T08:38:39.172Z,154.32
2024-04-24T08:39:39.099Z,153.80
2024-04-24T08:40:39.053Z,154.54
2024-04-24T08:41:39.059Z,155.68
2024-04-24T08:42:39.043Z,155.19
2024-04-24T08:43:39.039Z,155.90
2024-04-24T08:44:39.100Z,157.27
2024-04-24T08:45:39.034Z,155.43
2024-04-24T08:46:39.050Z,153.02
2024-04-24T08:47:39.141Z,154.23
2024-04-24T08:48:39.255Z,155.11
2024-04-24T08:49:39.046Z,154.92
2024-04-24T08:50:39.057Z,155.27
2024-04-24T08:51:39.265Z,156.93
2024-04-24T08:52:39.047Z,155.85
2024-04-24T08:53:39.054Z,155.49
2024-04-24T08:54:39.070Z,155.75
2024-04-24T08:55:39.055Z,154.72
2024-04-24T08:56:39.064Z,159.16
2024-04-24T08:57:39.085Z,155.39
2024-04-24T08:58:39.095Z,155.13
2024-04-24T08:59:39.089Z,157.29
2024-04-24T09:00:39.086Z,156.69
2024-04-24T09:01:39.077Z,157.02
2024-04-24T09:02:39.289Z,155.89
2024-04-24T09:03:39.387Z,154.71
2024-04-24T09:04:39.382Z,155.72
2024-04-24T09:05:39.498Z,156.03
2024-04-24T09:06:39.544Z,156.65
2024-04-24T09:07:39.661Z,156.88
2024-04-24T09:08:39.755Z,157.45
2024-04-24T09:09:39.873Z,158.93
2024-04-24T09:10:39.963Z,157.13
2024-04-24T09:11:40.115Z,157.95
2024-04-24T09:12:40.147Z,160.52
2024-04-24T09:13:40.241Z,157.13
2024-04-24T09:14:40.377Z,158.88
2024-04-24T09:15:40.449Z,157.52
2024-04-24T09:16:40.557Z,156.55
2024-04-24T09:17:40.749Z,157.37
2024-04-24T09:18:40.832Z,159.07
2024-04-24T09:19:40.841Z,158.23
2024-04-24T09:20:40.935Z,156.66
2024-04-24T09:21:41.035Z,158.85
2024-04-24T09:22:41.131Z,159.74
2024-04-24T09:23:41.225Z,158.43
2024-04-24T09:24:41.307Z,157.78
2024-04-24T09:25:41.437Z,156.06
2024-04-24T09:26:41.519Z,158.02
2024-04-24T09:27:41.699Z,158.99
2024-04-24T09:28:42.196Z,158.32
2024-04-24T09:29:42.870Z,156.90
2024-04-24T09:30:41.755Z,158.08
2024-04-24T09:31:41.806Z,157.17
2024-04-24T09:32:41.918Z,157.42
2024-04-24T09:33:41.912Z,158.25
2024-04-24T09:34:41.853Z,158.45
2024-04-24T09:35:41.897Z,157.87
2024-04-24T09:36:43.281Z,157.75
2024-04-24T09:37:42.039Z,157.89
2024-04-24T09:38:42.067Z,160.40
2024-04-24T09:39:42.091Z,157.92
2024-04-24T09:40:42.104Z,157.51
2024-04-24T09:41:42.125Z,157.30
2024-04-24T09:42:42.152Z,158.89
2024-04-24T09:43:42.225Z,158.01
2024-04-24T09:44:42.345Z,158.41
2024-04-24T09:45:42.385Z,157.82
2024-04-24T09:46:42.464Z,159.19
2024-04-24T09:47:42.682Z,157.29
2024-04-24T09:48:42.681Z,159.04
2024-04-24T09:49:42.755Z,157.14
2024-04-24T09:50:42.952Z,160.46
2024-04-24T09:51:42.963Z,158.38
2024-04-24T09:52:43.047Z,158.14
2024-04-24T09:53:43.159Z,159.48
2024-04-24T09:54:43.243Z,158.75
2024-04-24T09:55:43.344Z,158.59
2024-04-24T09:56:43.445Z,158.19
2024-04-24T09:57:43.544Z,158.23
2024-04-24T09:58:43.646Z,160.90
2024-04-24T09:59:43.736Z,157.53
2024-04-24T10:00:43.838Z,158.14
2024-04-24T10:01:43.928Z,157.83
2024-04-24T10:02:44.145Z,159.25
2024-04-24T10:03:44.100Z,158.80
2024-04-24T10:04:44.212Z,158.09
2024-04-24T10:05:51.687Z,159.23
2024-04-24T10:06:44.315Z,159.33
2024-04-24T10:07:44.319Z,159.66
2024-04-24T10:08:44.307Z,159.88
2024-04-24T10:09:44.304Z,159.38
2024-04-24T10:10:44.303Z,159.61
2024-04-24T10:11:44.376Z,159.16
2024-04-24T10:12:44.357Z,159.06
2024-04-24T10:13:44.711Z,160.25
2024-04-24T10:14:44.377Z,158.19
2024-04-24T10:15:44.360Z,157.18
2024-04-24T10:16:44.352Z,159.22
2024-04-24T10:17:44.474Z,158.86
2024-04-24T10:18:44.445Z,158.84
2024-04-24T10:19:44.380Z,158.79
2024-04-24T10:20:44.387Z,159.04
2024-04-24T10:21:44.371Z,158.07
2024-04-24T10:22:44.369Z,158.63
2024-04-24T10:23:44.425Z,159.32
2024-04-24T10:24:44.419Z,160.48
2024-04-24T10:25:44.401Z,157.44
2024-04-24T10:26:44.414Z,159.63
2024-04-24T10:27:44.404Z,155.28
2024-04-24T10:28:45.731Z,157.94
2024-04-24T10:29:44.409Z,157.98
2024-04-24T10:30:44.398Z,157.55
2024-04-24T10:31:44.406Z,158.14
2024-04-24T10:32:44.486Z,156.56
2024-04-24T10:33:44.550Z,158.46
2024-04-24T10:34:44.407Z,156.71
2024-04-24T10:35:44.423Z,159.13
2024-04-24T10:36:44.414Z,155.79
2024-04-24T10:37:44.423Z,157.44
2024-04-24T10:38:44.420Z,156.27
2024-04-24T10:39:44.480Z,155.84
2024-04-24T10:40:44.428Z,154.72
2024-04-24T10:41:44.424Z,153.84
2024-04-24T10:42:44.420Z,155.66
2024-04-24T10:43:44.448Z,156.12
2024-04-24T10:44:44.453Z,154.56
2024-04-24T10:45:44.436Z,155.33
2024-04-24T10:46:44.426Z,154.78
2024-04-24T10:47:44.527Z,154.71
2024-04-24T10:48:44.473Z,155.26
2024-04-24T10:49:44.437Z,153.67
2024-04-24T10:50:44.480Z,156.21
2024-04-24T10:51:44.424Z,154.69
2024-04-24T10:52:44.435Z,154.65
2024-04-24T10:53:52.387Z,154.02
2024-04-24T10:54:44.438Z,154.14
2024-04-24T10:55:44.433Z,154.35
2024-04-24T10:56:44.556Z,154.64
2024-04-24T10:57:44.603Z,156.47
2024-04-24T10:58:44.441Z,156.06
2024-04-24T10:59:44.453Z,154.43
2024-04-24T11:00:44.472Z,153.93
2024-04-24T11:01:52.575Z,153.02
2024-04-24T11:02:44.519Z,153.16
2024-04-24T11:03:44.506Z,153.57
2024-04-24T11:04:44.455Z,153.43
2024-04-24T11:05:44.595Z,153.62
2024-04-24T11:06:44.470Z,154.17
2024-04-24T11:07:44.489Z,153.47
2024-04-24T11:08:44.536Z,153.73
2024-04-24T11:09:44.492Z,153.57
2024-04-24T11:10:44.764Z,150.96
2024-04-24T11:11:44.547Z,153.85
2024-04-24T11:12:44.514Z,150.68
2024-04-24T11:13:44.499Z,152.00
2024-04-24T11:14:44.554Z,151.27
2024-04-24T11:15:54.242Z,149.56
2024-04-24T11:16:44.550Z,149.70
2024-04-24T11:17:44.745Z,150.44
2024-04-24T11:18:44.650Z,150.45
2024-04-24T11:19:44.567Z,151.54
2024-04-24T11:20:44.592Z,151.84
2024-04-24T11:21:44.609Z,150.98
2024-04-24T11:22:44.596Z,153.87
2024-04-24T11:23:44.598Z,150.67
2024-04-24T11:24:44.598Z,152.73
2024-04-24T11:25:51.859Z,150.44
2024-04-24T11:26:44.616Z,150.57
2024-04-24T11:27:44.600Z,151.16
2024-04-24T11:28:44.599Z,151.21
2024-04-24T11:29:44.606Z,152.77
2024-04-24T11:30:45.500Z,154.21
2024-04-24T11:31:44.626Z,152.83
2024-04-24T11:32:44.790Z,153.18
2024-04-24T11:33:47.340Z,152.87
2024-04-24T11:34:44.615Z,152.93
2024-04-24T11:35:44.652Z,153.05
2024-04-24T11:36:44.667Z,152.39
2024-04-24T11:37:44.745Z,153.50
2024-04-24T11:38:44.732Z,153.11
2024-04-24T11:39:44.760Z,154.37
2024-04-24T11:40:44.820Z,150.34
2024-04-24T11:41:44.815Z,152.02
2024-04-24T11:42:44.860Z,151.07
2024-04-24T11:43:44.860Z,152.66
2024-04-24T11:44:44.950Z,152.08
2024-04-24T11:45:45.055Z,151.19
2024-04-24T11:46:45.173Z,151.46
2024-04-24T11:47:45.335Z,151.44
2024-04-24T11:48:51.579Z,151.65
2024-04-24T11:49:45.391Z,151.78
2024-04-24T11:50:45.421Z,152.07
2024-04-24T11:51:45.351Z,152.11
2024-04-24T11:52:45.655Z,152.45
2024-04-24T11:53:45.902Z,154.70
2024-04-24T11:54:45.359Z,152.02
2024-04-24T11:55:45.376Z,154.46
2024-04-24T11:56:45.358Z,151.33
2024-04-24T11:57:45.347Z,152.84
2024-04-24T11:58:45.339Z,151.18
2024-04-24T11:59:45.351Z,151.20
2024-04-24T12:00:45.396Z,150.41
2024-04-24T12:01:45.371Z,150.78
2024-04-24T12:02:45.414Z,148.49
2024-04-24T12:03:45.355Z,150.84
2024-04-24T12:04:45.484Z,149.73
2024-04-24T12:05:45.355Z,150.00
2024-04-24T12:06:45.362Z,150.63
2024-04-24T12:07:45.361Z,149.52
2024-04-24T12:08:45.365Z,149.35
2024-04-24T12:09:45.383Z,150.67
2024-04-24T12:10:45.360Z,150.03
2024-04-24T12:11:45.463Z,151.63
2024-04-24T12:12:45.386Z,149.65
2024-04-24T12:13:45.382Z,149.84
2024-04-24T12:14:45.387Z,151.04
2024-04-24T12:15:45.444Z,151.29
2024-04-24T12:16:45.479Z,150.88
2024-04-24T12:17:45.670Z,149.72
2024-04-24T12:18:45.727Z,150.38
2024-04-24T12:19:45.855Z,151.22
2024-04-24T12:20:45.839Z,150.02
2024-04-24T12:21:45.898Z,151.53
2024-04-24T12:22:45.969Z,150.37
2024-04-24T12:23:46.066Z,152.13
2024-04-24T12:24:46.137Z,149.58
2024-04-24T12:25:46.242Z,149.82
2024-04-24T12:26:46.309Z,150.00
2024-04-24T12:27:46.391Z,149.86
2024-04-24T12:28:46.483Z,149.09
2024-04-24T12:29:46.583Z,149.69
2024-04-24T12:30:46.654Z,150.35
2024-04-24T12:31:46.745Z,150.68
2024-04-24T12:32:46.945Z,151.17
2024-04-24T12:33:47.078Z,148.22
2024-04-24T12:34:47.007Z,150.06
2024-04-24T12:35:47.078Z,150.29
2024-04-24T12:36:47.171Z,146.80
2024-04-24T12:37:47.260Z,148.48
2024-04-24T12:38:47.349Z,149.00
2024-04-24T12:39:47.697Z,147.84
2024-04-24T12:40:47.503Z,149.03
2024-04-24T12:41:47.613Z,149.44